La Suprema — IBIL — position and weather

sailwx.info

Track history (hours):
 
Tides and Currents Weather Stations Pressure Air Temp Water Temp Dewpoint Dewpoint Depression Visibility Wind Speed Wind Dir Waves Ship Positions

La Suprema

Last reported at 2014-Oct-25 15:33 UTC. Time now 2014-Oct-25 16:11 UTC.
Position N 38°37' E 013°05'.

Length 211 m; draft 7.3 m.

Type: Passenger vessel. MMSI: 247083700.

Date/timePositionNaut miles runAvg speedWind from/ knotsBaromVisibWave heightAir tempDewpointWater temp
2014-Oct-25 15:33N 38°37' E 013°05'31421.7
2014-Oct-25 01:07N 43°08' E 009°35'1221.7
2014-Oct-25 00:34N 43°19' E 009°29'2222.0
2014-Oct-24 23:33N 43°39' E 009°18'2221.7
2014-Oct-24 22:33N 44°00' E 009°09'2221.8
2014-Oct-24 21:33N 44°21' E 008°58'5 4.4
2014-Oct-24 20:30N 44°25' E 008°55'0 0.0
2014-Oct-24 17:09N 44°25' E 008°55'711.5
2014-Oct-24 16:33N 44°19' E 009°00'2424.4
2014-Oct-24 15:34N 43°58' E 009°17'2524.8
2014-Oct-24 14:33N 43°37' E 009°35'2524.8
2014-Oct-24 13:34N 43°15' E 009°52'2624.4
2014-Oct-24 12:30N 42°50' E 010°01'30521.9
2014-Oct-23 22:32N 38°36' E 013°45'2323.8
2014-Oct-23 21:33N 38°16' E 013°31'1110.7
2014-Oct-23 20:33N 38°08' E 013°22'0 0.0
2014-Oct-23 19:32N 38°08' E 013°22'0 0.0
2014-Oct-23 18:32N 38°08' E 013°22'0 0.0
2014-Oct-23 17:31N 38°08' E 013°22'0 0.0
2014-Oct-23 16:31N 38°08' E 013°22'7 7.4
2014-Oct-23 15:34N 38°15' E 013°23'2221.7
2014-Oct-23 14:32N 38°34' E 013°08'31922.8
2014-Oct-23 00:33N 43°09' E 009°35'2424.5
2014-Oct-22 23:34N 43°31' E 009°23'2524.6
2014-Oct-22 22:34N 43°55' E 009°11'2524.5
2014-Oct-22 21:33N 44°18' E 008°59'7 3.4
2014-Oct-22 19:21N 44°25' E 008°55'0 0.0
2014-Oct-22 18:33N 44°25' E 008°55'0 0.0
2014-Oct-22 17:33N 44°25' E 008°55'9 9.4
2014-Oct-22 16:33N 44°17' E 009°02'2423.7
2014-Oct-22 15:34N 43°56' E 009°18'2323.4
2014-Oct-22 14:34N 43°36' E 009°35'2323.5
2014-Oct-22 13:34N 43°16' E 009°52'31122.0
2014-Oct-21 23:25N 38°48' E 013°22'2124.5
2014-Oct-21 22:33N 38°29' E 013°31'2221.6
2014-Oct-21 21:33N 38°08' E 013°24'2 1.5
2014-Oct-21 20:31N 38°08' E 013°22'0 0.0
2014-Oct-21 19:33N 38°08' E 013°22'0 0.0
2014-Oct-21 18:24N 38°08' E 013°22'0 0.0
2014-Oct-21 17:32N 38°08' E 013°22'1 1.0
2014-Oct-21 16:34N 38°07' E 013°23'2120.1
2014-Oct-21 15:32N 38°26' E 013°13'32022.8
2014-Oct-21 01:29N 43°02' E 009°38'1920.9
2014-Oct-21 00:33N 43°20' E 009°29'2121.4
2014-Oct-20 23:33N 43°40' E 009°18'2121.3
2014-Oct-20 22:33N 44°00' E 009°08'2121.0
2014-Oct-20 21:33N 44°20' E 008°58'5 3.8
2014-Oct-20 20:08N 44°25' E 008°55'0 0.0
2014-Oct-20 19:17N 44°25' E 008°55'0 0.0
2014-Oct-20 18:31N 44°25' E 008°55'0 0.0
2014-Oct-20 17:25N 44°25' E 008°55'0 0.0
2014-Oct-20 16:18N 44°25' E 008°55'0 0.0
2014-Oct-20 15:12N 44°25' E 008°55'0 0.0
2014-Oct-20 14:11N 44°25' E 008°55'0 0.0
2014-Oct-20 13:32N 44°25' E 008°55'0 0.0
2014-Oct-20 11:28N 44°25' E 008°55'0 0.0
2014-Oct-20 10:16N 44°25' E 008°55'0 0.0
2014-Oct-20 06:20N 44°25' E 008°55'0 0.0
2014-Oct-20 04:31N 44°25' E 008°55'0 0.0
2014-Oct-20 03:25N 44°25' E 008°55'0 0.0
2014-Oct-20 02:18N 44°25' E 008°55'0 0.0
2014-Oct-20 01:33N 44°25' E 008°55'0 0.0
2014-Oct-20 00:32N 44°25' E 008°55'0 0.0
2014-Oct-19 22:16N 44°25' E 008°55'0 0.0
2014-Oct-19 21:28N 44°25' E 008°55'0 0.0
2014-Oct-19 20:28N 44°25' E 008°55'0 0.0
2014-Oct-19 19:33N 44°25' E 008°55'0 0.0
2014-Oct-19 18:06N 44°25' E 008°55'2 2.8
2014-Oct-19 17:33N 44°23' E 008°56'1514.9
2014-Oct-19 16:33N 44°11' E 009°07'2221.9
2014-Oct-19 15:34N 43°52' E 009°22'2221.6
2014-Oct-19 14:34N 43°33' E 009°37'2221.8
2014-Oct-19 13:34N 43°15' E 009°53'2121.0
2014-Oct-19 12:33N 42°54' E 010°01'2521.2
2014-Oct-19 11:21N 42°32' E 010°18'27223.1
2014-Oct-18 23:33N 38°33' E 013°08'2524.8
2014-Oct-18 22:34N 38°12' E 013°25'4 4.2
2014-Oct-18 21:31N 38°08' E 013°22'0 0.0
2014-Oct-18 20:31N 38°08' E 013°22'0 0.0
2014-Oct-18 19:34N 38°08' E 013°22'0 0.0
2014-Oct-18 18:33N 38°08' E 013°22'0 0.0
2014-Oct-18 17:33N 38°08' E 013°22'1 1.0
2014-Oct-18 16:34N 38°07' E 013°23'1717.1
2014-Oct-18 15:33N 38°24' E 013°16'25322.7
2014-Oct-18 04:25N 41°57' E 010°18'4524.1
2014-Oct-18 02:33N 42°37' E 009°50'2424.2
2014-Oct-18 01:34N 42°60' E 009°39'2424.0
2014-Oct-18 00:34N 43°22' E 009°27'2423.7
2014-Oct-17 23:34N 43°44' E 009°17'2323.4
2014-Oct-17 22:34N 44°07' E 009°06'2019.4
2014-Oct-17 21:33N 44°24' E 008°55'0 0.1
2014-Oct-17 20:16N 44°25' E 008°55'0 0.0
2014-Oct-17 19:28N 44°25' E 008°55'0 0.0
2014-Oct-17 17:09N 44°25' E 008°55'3 5.0
2014-Oct-17 16:33N 44°22' E 008°58'2322.9
2014-Oct-17 15:34N 44°03' E 009°14'2524.6
2014-Oct-17 14:34N 43°41' E 009°31'2424.3
2014-Oct-17 13:33N 43°20' E 009°48'2424.4
2014-Oct-17 12:33N 42°58' E 010°00'32816.3
2014-Oct-16 16:27N 38°08' E 013°24'1718.6
2014-Oct-16 15:33N 38°24' E 013°16'29722.4
2014-Oct-16 02:17N 42°37' E 009°51'2724.4
2014-Oct-16 01:12N 43°02' E 009°39'1624.6
2014-Oct-16 00:34N 43°16' E 009°31'2424.4
2014-Oct-15 23:34N 43°39' E 009°19'2424.3
2014-Oct-15 22:34N 44°02' E 009°07'2323.0
2014-Oct-15 21:33N 44°23' E 008°56'1 0.7
2014-Oct-15 19:29N 44°25' E 008°55'0 0.0
2014-Oct-15 17:10N 44°25' E 008°55'610.0
2014-Oct-15 16:33N 44°20' E 008°60'2221.9
2014-Oct-15 15:33N 44°01' E 009°15'  
Track history (hours):
 
Tides and Currents Weather Stations Pressure Air Temp Water Temp Dewpoint Dewpoint Depression Visibility Wind Speed Wind Dir Waves Ship Positions

La Suprema

Last reported at 2014-Oct-25 15:33 UTC. Time now 2014-Oct-25 16:11 UTC.
Position N 38°37' E 013°05'.

Length 211 m; draft 7.3 m.

Type: Passenger vessel. MMSI: 247083700.

Date/timePositionNaut miles runAvg speedWind from/ knotsBaromVisibWave heightAir tempDewpointWater temp
2014-Oct-25 15:33N 38°37' E 013°05'31421.7
2014-Oct-25 01:07N 43°08' E 009°35'1221.7
2014-Oct-25 00:34N 43°19' E 009°29'2222.0
2014-Oct-24 23:33N 43°39' E 009°18'2221.7
2014-Oct-24 22:33N 44°00' E 009°09'2221.8
2014-Oct-24 21:33N 44°21' E 008°58'5 4.4
2014-Oct-24 20:30N 44°25' E 008°55'0 0.0
2014-Oct-24 17:09N 44°25' E 008°55'711.5
2014-Oct-24 16:33N 44°19' E 009°00'2424.4
2014-Oct-24 15:34N 43°58' E 009°17'2524.8
2014-Oct-24 14:33N 43°37' E 009°35'2524.8
2014-Oct-24 13:34N 43°15' E 009°52'2624.4
2014-Oct-24 12:30N 42°50' E 010°01'30521.9
2014-Oct-23 22:32N 38°36' E 013°45'2323.8
2014-Oct-23 21:33N 38°16' E 013°31'1110.7
2014-Oct-23 20:33N 38°08' E 013°22'0 0.0
2014-Oct-23 19:32N 38°08' E 013°22'0 0.0
2014-Oct-23 18:32N 38°08' E 013°22'0 0.0
2014-Oct-23 17:31N 38°08' E 013°22'0 0.0
2014-Oct-23 16:31N 38°08' E 013°22'7 7.4
2014-Oct-23 15:34N 38°15' E 013°23'2221.7
2014-Oct-23 14:32N 38°34' E 013°08'31922.8
2014-Oct-23 00:33N 43°09' E 009°35'2424.5
2014-Oct-22 23:34N 43°31' E 009°23'2524.6
2014-Oct-22 22:34N 43°55' E 009°11'2524.5
2014-Oct-22 21:33N 44°18' E 008°59'7 3.4
2014-Oct-22 19:21N 44°25' E 008°55'0 0.0
2014-Oct-22 18:33N 44°25' E 008°55'0 0.0
2014-Oct-22 17:33N 44°25' E 008°55'9 9.4
2014-Oct-22 16:33N 44°17' E 009°02'2423.7
2014-Oct-22 15:34N 43°56' E 009°18'2323.4
2014-Oct-22 14:34N 43°36' E 009°35'2323.5
2014-Oct-22 13:34N 43°16' E 009°52'31122.0
2014-Oct-21 23:25N 38°48' E 013°22'2124.5
2014-Oct-21 22:33N 38°29' E 013°31'2221.6
2014-Oct-21 21:33N 38°08' E 013°24'2 1.5
2014-Oct-21 20:31N 38°08' E 013°22'0 0.0
2014-Oct-21 19:33N 38°08' E 013°22'0 0.0
2014-Oct-21 18:24N 38°08' E 013°22'0 0.0
2014-Oct-21 17:32N 38°08' E 013°22'1 1.0
2014-Oct-21 16:34N 38°07' E 013°23'2120.1
2014-Oct-21 15:32N 38°26' E 013°13'32022.8
2014-Oct-21 01:29N 43°02' E 009°38'1920.9
2014-Oct-21 00:33N 43°20' E 009°29'2121.4
2014-Oct-20 23:33N 43°40' E 009°18'2121.3
2014-Oct-20 22:33N 44°00' E 009°08'2121.0
2014-Oct-20 21:33N 44°20' E 008°58'5 3.8
2014-Oct-20 20:08N 44°25' E 008°55'0 0.0
2014-Oct-20 19:17N 44°25' E 008°55'0 0.0
2014-Oct-20 18:31N 44°25' E 008°55'0 0.0
2014-Oct-20 17:25N 44°25' E 008°55'0 0.0
2014-Oct-20 16:18N 44°25' E 008°55'0 0.0
2014-Oct-20 15:12N 44°25' E 008°55'0 0.0
2014-Oct-20 14:11N 44°25' E 008°55'0 0.0
2014-Oct-20 13:32N 44°25' E 008°55'0 0.0
2014-Oct-20 11:28N 44°25' E 008°55'0 0.0
2014-Oct-20 10:16N 44°25' E 008°55'0 0.0
2014-Oct-20 06:20N 44°25' E 008°55'0 0.0
2014-Oct-20 04:31N 44°25' E 008°55'0 0.0
2014-Oct-20 03:25N 44°25' E 008°55'0 0.0
2014-Oct-20 02:18N 44°25' E 008°55'0 0.0
2014-Oct-20 01:33N 44°25' E 008°55'0 0.0
2014-Oct-20 00:32N 44°25' E 008°55'0 0.0
2014-Oct-19 22:16N 44°25' E 008°55'0 0.0
2014-Oct-19 21:28N 44°25' E 008°55'0 0.0
2014-Oct-19 20:28N 44°25' E 008°55'0 0.0
2014-Oct-19 19:33N 44°25' E 008°55'0 0.0
2014-Oct-19 18:06N 44°25' E 008°55'2 2.8
2014-Oct-19 17:33N 44°23' E 008°56'1514.9
2014-Oct-19 16:33N 44°11' E 009°07'2221.9
2014-Oct-19 15:34N 43°52' E 009°22'2221.6
2014-Oct-19 14:34N 43°33' E 009°37'2221.8
2014-Oct-19 13:34N 43°15' E 009°53'2121.0
2014-Oct-19 12:33N 42°54' E 010°01'2521.2
2014-Oct-19 11:21N 42°32' E 010°18'27223.1
2014-Oct-18 23:33N 38°33' E 013°08'2524.8
2014-Oct-18 22:34N 38°12' E 013°25'4 4.2
2014-Oct-18 21:31N 38°08' E 013°22'0 0.0
2014-Oct-18 20:31N 38°08' E 013°22'0 0.0
2014-Oct-18 19:34N 38°08' E 013°22'0 0.0
2014-Oct-18 18:33N 38°08' E 013°22'0 0.0
2014-Oct-18 17:33N 38°08' E 013°22'1 1.0
2014-Oct-18 16:34N 38°07' E 013°23'1717.1
2014-Oct-18 15:33N 38°24' E 013°16'25322.7
2014-Oct-18 04:25N 41°57' E 010°18'4524.1
2014-Oct-18 02:33N 42°37' E 009°50'2424.2
2014-Oct-18 01:34N 42°60' E 009°39'2424.0
2014-Oct-18 00:34N 43°22' E 009°27'2423.7
2014-Oct-17 23:34N 43°44' E 009°17'2323.4
2014-Oct-17 22:34N 44°07' E 009°06'2019.4
2014-Oct-17 21:33N 44°24' E 008°55'0 0.1
2014-Oct-17 20:16N 44°25' E 008°55'0 0.0
2014-Oct-17 19:28N 44°25' E 008°55'0 0.0
2014-Oct-17 17:09N 44°25' E 008°55'3 5.0
2014-Oct-17 16:33N 44°22' E 008°58'2322.9
2014-Oct-17 15:34N 44°03' E 009°14'2524.6
2014-Oct-17 14:34N 43°41' E 009°31'2424.3
2014-Oct-17 13:33N 43°20' E 009°48'2424.4
2014-Oct-17 12:33N 42°58' E 010°00'32816.3
2014-Oct-16 16:27N 38°08' E 013°24'1718.6
2014-Oct-16 15:33N 38°24' E 013°16'29722.4
2014-Oct-16 02:17N 42°37' E 009°51'2724.4
2014-Oct-16 01:12N 43°02' E 009°39'1624.6
2014-Oct-16 00:34N 43°16' E 009°31'2424.4
2014-Oct-15 23:34N 43°39' E 009°19'2424.3
2014-Oct-15 22:34N 44°02' E 009°07'2323.0
2014-Oct-15 21:33N 44°23' E 008°56'1 0.7
2014-Oct-15 19:29N 44°25' E 008°55'0 0.0
2014-Oct-15 17:10N 44°25' E 008°55'610.0
2014-Oct-15 16:33N 44°20' E 008°60'2221.9
2014-Oct-15 15:33N 44°01' E 009°15'  

Dump ship's entire track history